sensor_id;sensor_type;location;lat;lon;timestamp;temperature;humidity
13123;DHT22;6627;50.920;12.050;2023-06-10T00:01:43;15.60;99.90
13123;DHT22;6627;50.920;12.050;2023-06-10T00:04:12;15.50;99.90
13123;DHT22;6627;50.920;12.050;2023-06-10T00:06:42;15.40;99.90
13123;DHT22;6627;50.920;12.050;2023-06-10T00:09:10;15.20;99.90
13123;DHT22;6627;50.920;12.050;2023-06-10T00:11:37;15.00;99.90
13123;DHT22;6627;50.920;12.050;2023-06-10T00:14:05;14.90;99.90
13123;DHT22;6627;50.920;12.050;2023-06-10T00:16:32;14.70;99.90
13123;DHT22;6627;50.920;12.050;2023-06-10T00:18:59;14.70;99.90
13123;DHT22;6627;50.920;12.050;2023-06-10T00:21:27;14.60;99.90
13123;DHT22;6627;50.920;12.050;2023-06-10T00:23:56;14.50;99.90
13123;DHT22;6627;50.920;12.050;2023-06-10T00:26:23;14.40;99.90
13123;DHT22;6627;50.920;12.050;2023-06-10T00:28:51;14.40;99.90
13123;DHT22;6627;50.920;12.050;2023-06-10T00:31:19;14.50;99.90
13123;DHT22;6627;50.920;12.050;2023-06-10T00:33:46;14.50;99.90
13123;DHT22;6627;50.920;12.050;2023-06-10T00:36:13;14.60;99.90
13123;DHT22;6627;50.920;12.050;2023-06-10T00:38:40;14.60;99.90
13123;DHT22;6627;50.920;12.050;2023-06-10T00:41:09;14.60;99.90
13123;DHT22;6627;50.920;12.050;2023-06-10T00:43:36;14.50;99.90
13123;DHT22;6627;50.920;12.050;2023-06-10T00:46:04;14.60;99.90
13123;DHT22;6627;50.920;12.050;2023-06-10T00:48:32;14.40;99.90
13123;DHT22;6627;50.920;12.050;2023-06-10T00:50:59;14.30;99.90
13123;DHT22;6627;50.920;12.050;2023-06-10T00:53:27;14.10;99.90
13123;DHT22;6627;50.920;12.050;2023-06-10T00:55:55;13.90;99.90
13123;DHT22;6627;50.920;12.050;2023-06-10T00:58:24;13.80;99.90
13123;DHT22;6627;50.920;12.050;2023-06-10T01:00:52;13.70;99.90
13123;DHT22;6627;50.920;12.050;2023-06-10T01:03:19;13.70;99.90
13123;DHT22;6627;50.920;12.050;2023-06-10T01:05:50;13.80;99.90
13123;DHT22;6627;50.920;12.050;2023-06-10T01:08:31;13.60;99.90
13123;DHT22;6627;50.920;12.050;2023-06-10T01:11:05;13.50;99.90
13123;DHT22;6627;50.920;12.050;2023-06-10T01:13:38;13.50;99.90
13123;DHT22;6627;50.920;12.050;2023-06-10T01:16:09;13.50;99.90
13123;DHT22;6627;50.920;12.050;2023-06-10T01:18:36;13.50;99.90
13123;DHT22;6627;50.920;12.050;2023-06-10T01:21:04;13.50;99.90
13123;DHT22;6627;50.920;12.050;2023-06-10T01:23:34;13.40;99.90
13123;DHT22;6627;50.920;12.050;2023-06-10T01:26:05;13.50;99.90
13123;DHT22;6627;50.920;12.050;2023-06-10T01:28:40;13.60;99.90
13123;DHT22;6627;50.920;12.050;2023-06-10T01:31:16;13.70;99.90
13123;DHT22;6627;50.920;12.050;2023-06-10T01:33:51;14.10;99.90
13123;DHT22;6627;50.920;12.050;2023-06-10T01:36:21;14.00;99.90
13123;DHT22;6627;50.920;12.050;2023-06-10T01:38:53;13.90;99.90
13123;DHT22;6627;50.920;12.050;2023-06-10T01:41:21;13.80;99.90
13123;DHT22;6627;50.920;12.050;2023-06-10T01:43:49;14.00;99.90
13123;DHT22;6627;50.920;12.050;2023-06-10T01:46:16;14.00;99.90
13123;DHT22;6627;50.920;12.050;2023-06-10T01:48:45;13.80;99.90
13123;DHT22;6627;50.920;12.050;2023-06-10T01:51:12;14.00;99.90
13123;DHT22;6627;50.920;12.050;2023-06-10T01:53:40;13.80;99.90
13123;DHT22;6627;50.920;12.050;2023-06-10T01:56:08;13.60;99.90
13123;DHT22;6627;50.920;12.050;2023-06-10T01:58:36;13.50;99.90
13123;DHT22;6627;50.920;12.050;2023-06-10T02:01:03;13.80;99.90
13123;DHT22;6627;50.920;12.050;2023-06-10T02:03:30;13.70;99.90
13123;DHT22;6627;50.920;12.050;2023-06-10T02:05:58;13.50;99.90
13123;DHT22;6627;50.920;12.050;2023-06-10T02:08:25;13.40;99.90
13123;DHT22;6627;50.920;12.050;2023-06-10T02:10:53;13.30;99.90
13123;DHT22;6627;50.920;12.050;2023-06-10T02:13:22;13.20;99.90
13123;DHT22;6627;50.920;12.050;2023-06-10T02:15:49;13.30;99.90
13123;DHT22;6627;50.920;12.050;2023-06-10T02:18:16;13.30;99.90
13123;DHT22;6627;50.920;12.050;2023-06-10T02:20:46;13.30;99.90
13123;DHT22;6627;50.920;12.050;2023-06-10T02:23:13;13.50;99.90
13123;DHT22;6627;50.920;12.050;2023-06-10T02:25:40;13.70;99.90
13123;DHT22;6627;50.920;12.050;2023-06-10T02:28:07;14.00;99.90
13123;DHT22;6627;50.920;12.050;2023-06-10T02:30:38;14.10;99.90
13123;DHT22;6627;50.920;12.050;2023-06-10T02:33:06;14.10;99.90
13123;DHT22;6627;50.920;12.050;2023-06-10T02:35:36;14.00;99.90
13123;DHT22;6627;50.920;12.050;2023-06-10T02:38:03;14.10;99.90
13123;DHT22;6627;50.920;12.050;2023-06-10T02:40:31;13.90;99.90
13123;DHT22;6627;50.920;12.050;2023-06-10T02:42:58;13.80;99.90
13123;DHT22;6627;50.920;12.050;2023-06-10T02:45:25;13.70;99.90
13123;DHT22;6627;50.920;12.050;2023-06-10T02:47:54;13.70;99.90
13123;DHT22;6627;50.920;12.050;2023-06-10T02:50:21;13.70;99.90
13123;DHT22;6627;50.920;12.050;2023-06-10T02:52:48;13.80;99.90
13123;DHT22;6627;50.920;12.050;2023-06-10T02:55:16;14.00;99.90
13123;DHT22;6627;50.920;12.050;2023-06-10T02:57:43;14.00;99.90
13123;DHT22;6627;50.920;12.050;2023-06-10T03:00:11;13.90;99.90
13123;DHT22;6627;50.920;12.050;2023-06-10T03:02:40;14.00;99.90
13123;DHT22;6627;50.920;12.050;2023-06-10T03:05:09;13.90;99.90
13123;DHT22;6627;50.920;12.050;2023-06-10T03:07:37;13.80;99.90
13123;DHT22;6627;50.920;12.050;2023-06-10T03:10:05;13.80;99.90
13123;DHT22;6627;50.920;12.050;2023-06-10T03:12:33;13.80;99.90
13123;DHT22;6627;50.920;12.050;2023-06-10T03:15:00;14.00;99.90
13123;DHT22;6627;50.920;12.050;2023-06-10T03:17:29;14.00;99.90
13123;DHT22;6627;50.920;12.050;2023-06-10T03:19:57;14.10;99.90
13123;DHT22;6627;50.920;12.050;2023-06-10T03:22:26;14.30;99.90
13123;DHT22;6627;50.920;12.050;2023-06-10T03:24:53;14.40;99.90
13123;DHT22;6627;50.920;12.050;2023-06-10T03:27:20;14.40;99.90
13123;DHT22;6627;50.920;12.050;2023-06-10T03:29:47;14.50;99.90
13123;DHT22;6627;50.920;12.050;2023-06-10T03:32:15;14.50;99.90
13123;DHT22;6627;50.920;12.050;2023-06-10T03:34:43;14.50;99.90
13123;DHT22;6627;50.920;12.050;2023-06-10T03:37:13;14.50;99.90
13123;DHT22;6627;50.920;12.050;2023-06-10T03:39:42;14.40;99.90
13123;DHT22;6627;50.920;12.050;2023-06-10T03:42:09;14.40;99.90
13123;DHT22;6627;50.920;12.050;2023-06-10T03:44:37;14.30;99.90
13123;DHT22;6627;50.920;12.050;2023-06-10T03:47:04;14.30;99.90
13123;DHT22;6627;50.920;12.050;2023-06-10T03:49:32;14.30;99.90
13123;DHT22;6627;50.920;12.050;2023-06-10T03:51:59;14.40;99.90
13123;DHT22;6627;50.920;12.050;2023-06-10T03:54:27;14.30;99.90
13123;DHT22;6627;50.920;12.050;2023-06-10T03:56:56;14.30;99.90
13123;DHT22;6627;50.920;12.050;2023-06-10T03:59:23;14.40;99.90
13123;DHT22;6627;50.920;12.050;2023-06-10T04:01:50;14.50;99.90
13123;DHT22;6627;50.920;12.050;2023-06-10T04:04:17;14.50;99.90
13123;DHT22;6627;50.920;12.050;2023-06-10T04:06:45;14.60;99.90
13123;DHT22;6627;50.920;12.050;2023-06-10T04:09:12;14.60;99.90
13123;DHT22;6627;50.920;12.050;2023-06-10T04:11:40;14.60;99.90
13123;DHT22;6627;50.920;12.050;2023-06-10T04:14:08;14.60;99.90
13123;DHT22;6627;50.920;12.050;2023-06-10T04:16:35;14.60;99.90
13123;DHT22;6627;50.920;12.050;2023-06-10T04:19:04;14.60;99.90
13123;DHT22;6627;50.920;12.050;2023-06-10T04:21:31;14.50;99.90
13123;DHT22;6627;50.920;12.050;2023-06-10T04:23:58;14.50;99.90
13123;DHT22;6627;50.920;12.050;2023-06-10T04:26:25;14.40;99.90
13123;DHT22;6627;50.920;12.050;2023-06-10T04:28:53;14.50;99.90
13123;DHT22;6627;50.920;12.050;2023-06-10T04:31:22;14.60;99.90
13123;DHT22;6627;50.920;12.050;2023-06-10T04:33:49;14.60;99.90
13123;DHT22;6627;50.920;12.050;2023-06-10T04:36:17;14.70;99.90
13123;DHT22;6627;50.920;12.050;2023-06-10T04:38:44;14.70;99.90
13123;DHT22;6627;50.920;12.050;2023-06-10T04:41:11;14.70;99.90
13123;DHT22;6627;50.920;12.050;2023-06-10T04:43:39;14.80;99.90
13123;DHT22;6627;50.920;12.050;2023-06-10T04:46:06;14.80;99.90
13123;DHT22;6627;50.920;12.050;2023-06-10T04:48:34;14.70;99.90
13123;DHT22;6627;50.920;12.050;2023-06-10T04:51:03;14.60;99.90
13123;DHT22;6627;50.920;12.050;2023-06-10T04:53:31;14.60;99.90
13123;DHT22;6627;50.920;12.050;2023-06-10T04:55:58;14.70;99.90
13123;DHT22;6627;50.920;12.050;2023-06-10T04:58:25;14.70;99.90
13123;DHT22;6627;50.920;12.050;2023-06-10T05:00:52;14.60;99.90
13123;DHT22;6627;50.920;12.050;2023-06-10T05:03:20;14.70;99.90
13123;DHT22;6627;50.920;12.050;2023-06-10T05:05:48;14.80;99.90
13123;DHT22;6627;50.920;12.050;2023-06-10T05:08:15;14.90;99.90
13123;DHT22;6627;50.920;12.050;2023-06-10T05:10:42;15.20;99.90
13123;DHT22;6627;50.920;12.050;2023-06-10T05:13:10;15.30;99.90
13123;DHT22;6627;50.920;12.050;2023-06-10T05:15:37;15.40;99.90
13123;DHT22;6627;50.920;12.050;2023-06-10T05:18:04;15.40;99.90
13123;DHT22;6627;50.920;12.050;2023-06-10T05:20:31;15.50;99.90
13123;DHT22;6627;50.920;12.050;2023-06-10T05:23:00;15.30;99.90
13123;DHT22;6627;50.920;12.050;2023-06-10T05:25:30;15.30;99.90
13123;DHT22;6627;50.920;12.050;2023-06-10T05:27:58;15.40;99.90
13123;DHT22;6627;50.920;12.050;2023-06-10T05:30:26;15.40;99.90
13123;DHT22;6627;50.920;12.050;2023-06-10T05:32:53;15.50;99.90
13123;DHT22;6627;50.920;12.050;2023-06-10T05:35:22;15.60;99.90
13123;DHT22;6627;50.920;12.050;2023-06-10T05:37:49;15.80;99.90
13123;DHT22;6627;50.920;12.050;2023-06-10T05:40:18;15.90;99.90
13123;DHT22;6627;50.920;12.050;2023-06-10T05:42:45;15.80;99.90
13123;DHT22;6627;50.920;12.050;2023-06-10T05:45:12;15.90;99.90
13123;DHT22;6627;50.920;12.050;2023-06-10T05:47:40;15.90;99.90
13123;DHT22;6627;50.920;12.050;2023-06-10T05:50:07;16.00;99.90
13123;DHT22;6627;50.920;12.050;2023-06-10T05:52:36;16.20;99.90
13123;DHT22;6627;50.920;12.050;2023-06-10T05:55:06;16.30;99.90
13123;DHT22;6627;50.920;12.050;2023-06-10T05:57:35;16.30;99.90
13123;DHT22;6627;50.920;12.050;2023-06-10T06:00:04;16.30;99.90
13123;DHT22;6627;50.920;12.050;2023-06-10T06:02:32;16.30;99.90
13123;DHT22;6627;50.920;12.050;2023-06-10T06:04:59;16.50;99.90
13123;DHT22;6627;50.920;12.050;2023-06-10T06:07:26;16.60;99.90
13123;DHT22;6627;50.920;12.050;2023-06-10T06:09:53;16.70;99.90
13123;DHT22;6627;50.920;12.050;2023-06-10T06:12:21;16.90;99.90
13123;DHT22;6627;50.920;12.050;2023-06-10T06:14:49;17.00;99.90
13123;DHT22;6627;50.920;12.050;2023-06-10T06:17:16;17.20;99.90
13123;DHT22;6627;50.920;12.050;2023-06-10T06:19:43;17.40;99.90
13123;DHT22;6627;50.920;12.050;2023-06-10T06:22:13;17.30;99.90
13123;DHT22;6627;50.920;12.050;2023-06-10T06:24:40;17.40;99.90
13123;DHT22;6627;50.920;12.050;2023-06-10T06:27:07;17.40;99.90
13123;DHT22;6627;50.920;12.050;2023-06-10T06:29:34;17.50;99.90
13123;DHT22;6627;50.920;12.050;2023-06-10T06:32:03;17.60;99.90
13123;DHT22;6627;50.920;12.050;2023-06-10T06:34:31;17.80;99.90
13123;DHT22;6627;50.920;12.050;2023-06-10T06:36:59;17.90;99.90
13123;DHT22;6627;50.920;12.050;2023-06-10T06:39:26;18.10;99.90
13123;DHT22;6627;50.920;12.050;2023-06-10T06:41:53;18.40;99.90
13123;DHT22;6627;50.920;12.050;2023-06-10T06:44:20;18.60;99.90
13123;DHT22;6627;50.920;12.050;2023-06-10T06:46:47;18.70;99.90
13123;DHT22;6627;50.920;12.050;2023-06-10T06:49:16;19.00;99.90
13123;DHT22;6627;50.920;12.050;2023-06-10T06:51:43;19.00;99.90
13123;DHT22;6627;50.920;12.050;2023-06-10T06:54:10;18.80;99.90
13123;DHT22;6627;50.920;12.050;2023-06-10T06:56:38;19.10;99.90
13123;DHT22;6627;50.920;12.050;2023-06-10T06:59:05;19.20;99.90
13123;DHT22;6627;50.920;12.050;2023-06-10T07:01:33;19.20;99.90
13123;DHT22;6627;50.920;12.050;2023-06-10T07:04:01;19.20;99.90
13123;DHT22;6627;50.920;12.050;2023-06-10T07:06:29;19.50;99.90
13123;DHT22;6627;50.920;12.050;2023-06-10T07:08:57;19.70;99.90
13123;DHT22;6627;50.920;12.050;2023-06-10T07:11:24;19.80;99.90
13123;DHT22;6627;50.920;12.050;2023-06-10T07:13:52;19.80;99.90
13123;DHT22;6627;50.920;12.050;2023-06-10T07:16:19;20.10;99.90
13123;DHT22;6627;50.920;12.050;2023-06-10T07:18:47;20.00;99.90
13123;DHT22;6627;50.920;12.050;2023-06-10T07:21:14;20.00;99.90
13123;DHT22;6627;50.920;12.050;2023-06-10T07:23:43;20.40;99.90
13123;DHT22;6627;50.920;12.050;2023-06-10T07:26:11;20.50;99.90
13123;DHT22;6627;50.920;12.050;2023-06-10T07:28:39;20.60;99.90
13123;DHT22;6627;50.920;12.050;2023-06-10T07:31:07;20.80;99.90
13123;DHT22;6627;50.920;12.050;2023-06-10T07:33:34;21.00;99.90
13123;DHT22;6627;50.920;12.050;2023-06-10T07:36:03;20.90;99.90
13123;DHT22;6627;50.920;12.050;2023-06-10T07:38:30;21.10;99.90
13123;DHT22;6627;50.920;12.050;2023-06-10T07:40:58;21.20;99.90
13123;DHT22;6627;50.920;12.050;2023-06-10T07:43:26;21.20;99.90
13123;DHT22;6627;50.920;12.050;2023-06-10T07:45:53;21.30;99.90
13123;DHT22;6627;50.920;12.050;2023-06-10T07:48:20;21.20;99.90
13123;DHT22;6627;50.920;12.050;2023-06-10T07:50:48;21.40;99.90
13123;DHT22;6627;50.920;12.050;2023-06-10T07:53:15;20.60;99.90
13123;DHT22;6627;50.920;12.050;2023-06-10T07:55:42;20.90;99.90
13123;DHT22;6627;50.920;12.050;2023-06-10T07:58:10;21.20;99.90
13123;DHT22;6627;50.920;12.050;2023-06-10T08:00:38;21.40;99.90
13123;DHT22;6627;50.920;12.050;2023-06-10T08:03:05;21.70;99.90
13123;DHT22;6627;50.920;12.050;2023-06-10T08:05:32;21.80;99.90
13123;DHT22;6627;50.920;12.050;2023-06-10T08:07:59;22.00;99.90
13123;DHT22;6627;50.920;12.050;2023-06-10T08:10:26;21.90;99.90
13123;DHT22;6627;50.920;12.050;2023-06-10T08:12:54;22.20;99.90
13123;DHT22;6627;50.920;12.050;2023-06-10T08:15:22;22.20;99.90
13123;DHT22;6627;50.920;12.050;2023-06-10T08:17:49;22.50;99.90
13123;DHT22;6627;50.920;12.050;2023-06-10T08:20:17;22.60;99.90
13123;DHT22;6627;50.920;12.050;2023-06-10T08:22:44;22.60;99.90
13123;DHT22;6627;50.920;12.050;2023-06-10T08:25:12;22.70;99.90
13123;DHT22;6627;50.920;12.050;2023-06-10T08:27:39;22.90;99.90
13123;DHT22;6627;50.920;12.050;2023-06-10T08:30:07;22.90;99.90
13123;DHT22;6627;50.920;12.050;2023-06-10T08:32:37;22.70;99.90
13123;DHT22;6627;50.920;12.050;2023-06-10T08:35:05;22.90;99.90
13123;DHT22;6627;50.920;12.050;2023-06-10T08:37:32;23.20;99.90
13123;DHT22;6627;50.920;12.050;2023-06-10T08:39:59;23.30;99.90
13123;DHT22;6627;50.920;12.050;2023-06-10T08:45:01;23.50;99.90
13123;DHT22;6627;50.920;12.050;2023-06-10T08:47:30;23.50;99.90
13123;DHT22;6627;50.920;12.050;2023-06-10T08:50:03;23.70;99.90
13123;DHT22;6627;50.920;12.050;2023-06-10T08:52:36;23.80;99.90
13123;DHT22;6627;50.920;12.050;2023-06-10T08:55:10;23.80;99.90
13123;DHT22;6627;50.920;12.050;2023-06-10T08:57:38;23.40;99.90
13123;DHT22;6627;50.920;12.050;2023-06-10T09:00:09;23.40;99.90
13123;DHT22;6627;50.920;12.050;2023-06-10T09:05:08;23.60;99.90
13123;DHT22;6627;50.920;12.050;2023-06-10T09:07:36;23.50;99.90
13123;DHT22;6627;50.920;12.050;2023-06-10T09:10:05;23.60;99.90
13123;DHT22;6627;50.920;12.050;2023-06-10T09:12:33;23.90;99.90
13123;DHT22;6627;50.920;12.050;2023-06-10T09:15:01;24.00;99.90
13123;DHT22;6627;50.920;12.050;2023-06-10T09:17:31;24.10;99.90
13123;DHT22;6627;50.920;12.050;2023-06-10T09:19:59;24.00;99.90
13123;DHT22;6627;50.920;12.050;2023-06-10T09:22:30;23.60;99.90
13123;DHT22;6627;50.920;12.050;2023-06-10T09:25:04;24.10;99.90
13123;DHT22;6627;50.920;12.050;2023-06-10T09:27:44;24.20;99.90
13123;DHT22;6627;50.920;12.050;2023-06-10T09:30:24;24.20;99.90
13123;DHT22;6627;50.920;12.050;2023-06-10T09:32:53;24.30;99.90
13123;DHT22;6627;50.920;12.050;2023-06-10T09:35:23;24.60;99.90
13123;DHT22;6627;50.920;12.050;2023-06-10T09:37:53;24.80;99.90
13123;DHT22;6627;50.920;12.050;2023-06-10T09:40:22;24.60;99.90
13123;DHT22;6627;50.920;12.050;2023-06-10T09:42:53;24.60;99.90
13123;DHT22;6627;50.920;12.050;2023-06-10T09:45:22;24.70;99.90
13123;DHT22;6627;50.920;12.050;2023-06-10T09:47:53;24.70;99.90
13123;DHT22;6627;50.920;12.050;2023-06-10T09:52:50;24.60;99.90
13123;DHT22;6627;50.920;12.050;2023-06-10T09:55:19;24.60;99.90
13123;DHT22;6627;50.920;12.050;2023-06-10T09:57:49;24.50;99.90
13123;DHT22;6627;50.920;12.050;2023-06-10T10:00:17;24.60;99.90
13123;DHT22;6627;50.920;12.050;2023-06-10T10:02:46;24.70;99.90
13123;DHT22;6627;50.920;12.050;2023-06-10T10:05:15;25.00;99.90
13123;DHT22;6627;50.920;12.050;2023-06-10T10:07:44;25.00;99.90
13123;DHT22;6627;50.920;12.050;2023-06-10T10:10:13;25.10;99.90
13123;DHT22;6627;50.920;12.050;2023-06-10T10:12:43;25.00;99.90
13123;DHT22;6627;50.920;12.050;2023-06-10T10:15:16;25.20;99.90
13123;DHT22;6627;50.920;12.050;2023-06-10T10:17:48;25.30;99.90
13123;DHT22;6627;50.920;12.050;2023-06-10T10:20:24;25.40;99.90
13123;DHT22;6627;50.920;12.050;2023-06-10T10:22:56;25.40;99.90
13123;DHT22;6627;50.920;12.050;2023-06-10T10:25:27;25.70;99.90
13123;DHT22;6627;50.920;12.050;2023-06-10T10:28:01;25.70;99.90
13123;DHT22;6627;50.920;12.050;2023-06-10T10:30:37;25.70;99.90
13123;DHT22;6627;50.920;12.050;2023-06-10T10:33:12;25.80;99.90
13123;DHT22;6627;50.920;12.050;2023-06-10T10:35:44;25.60;99.90
13123;DHT22;6627;50.920;12.050;2023-06-10T10:38:13;25.70;99.90
13123;DHT22;6627;50.920;12.050;2023-06-10T10:40:41;25.60;99.90
13123;DHT22;6627;50.920;12.050;2023-06-10T10:43:12;25.80;99.90
13123;DHT22;6627;50.920;12.050;2023-06-10T10:45:40;25.80;99.90
13123;DHT22;6627;50.920;12.050;2023-06-10T10:48:08;25.60;99.90
13123;DHT22;6627;50.920;12.050;2023-06-10T10:50:38;25.70;99.90
13123;DHT22;6627;50.920;12.050;2023-06-10T10:53:06;25.90;99.90
13123;DHT22;6627;50.920;12.050;2023-06-10T10:55:33;25.80;99.90
13123;DHT22;6627;50.920;12.050;2023-06-10T10:58:03;25.90;99.90
13123;DHT22;6627;50.920;12.050;2023-06-10T11:00:33;26.10;99.90
13123;DHT22;6627;50.920;12.050;2023-06-10T11:03:06;25.90;99.90
13123;DHT22;6627;50.920;12.050;2023-06-10T11:08:07;26.10;99.90
13123;DHT22;6627;50.920;12.050;2023-06-10T11:10:37;25.90;99.90
13123;DHT22;6627;50.920;12.050;2023-06-10T11:13:06;25.80;99.90
13123;DHT22;6627;50.920;12.050;2023-06-10T11:15:42;25.70;99.90
13123;DHT22;6627;50.920;12.050;2023-06-10T11:18:20;25.80;99.90
13123;DHT22;6627;50.920;12.050;2023-06-10T11:20:54;26.10;99.90
13123;DHT22;6627;50.920;12.050;2023-06-10T11:23:40;26.20;99.90
13123;DHT22;6627;50.920;12.050;2023-06-10T11:26:20;26.20;99.90
13123;DHT22;6627;50.920;12.050;2023-06-10T11:29:06;26.10;99.90
13123;DHT22;6627;50.920;12.050;2023-06-10T11:31:54;26.30;99.90
13123;DHT22;6627;50.920;12.050;2023-06-10T11:34:22;26.50;99.90
13123;DHT22;6627;50.920;12.050;2023-06-10T11:36:53;26.80;99.90
13123;DHT22;6627;50.920;12.050;2023-06-10T11:39:21;26.70;99.90
13123;DHT22;6627;50.920;12.050;2023-06-10T11:41:52;26.90;99.90
13123;DHT22;6627;50.920;12.050;2023-06-10T11:44:19;26.90;99.90
13123;DHT22;6627;50.920;12.050;2023-06-10T11:46:48;27.00;99.90
13123;DHT22;6627;50.920;12.050;2023-06-10T11:49:20;27.10;99.90
13123;DHT22;6627;50.920;12.050;2023-06-10T11:51:47;27.20;99.90
13123;DHT22;6627;50.920;12.050;2023-06-10T11:54:17;27.30;99.90
13123;DHT22;6627;50.920;12.050;2023-06-10T11:56:46;27.30;99.90
13123;DHT22;6627;50.920;12.050;2023-06-10T11:59:14;27.30;99.90
13123;DHT22;6627;50.920;12.050;2023-06-10T12:01:43;27.10;99.90
13123;DHT22;6627;50.920;12.050;2023-06-10T12:04:12;27.00;99.90
13123;DHT22;6627;50.920;12.050;2023-06-10T12:06:43;27.30;99.90
13123;DHT22;6627;50.920;12.050;2023-06-10T12:09:14;27.40;99.90
13123;DHT22;6627;50.920;12.050;2023-06-10T12:11:43;27.20;99.90
13123;DHT22;6627;50.920;12.050;2023-06-10T12:14:10;27.30;99.90
13123;DHT22;6627;50.920;12.050;2023-06-10T12:16:38;27.60;99.90
13123;DHT22;6627;50.920;12.050;2023-06-10T12:19:05;27.40;99.90
13123;DHT22;6627;50.920;12.050;2023-06-10T12:21:36;27.50;99.90
13123;DHT22;6627;50.920;12.050;2023-06-10T12:24:08;27.50;99.90
13123;DHT22;6627;50.920;12.050;2023-06-10T12:26:38;27.70;99.90
13123;DHT22;6627;50.920;12.050;2023-06-10T12:29:16;27.70;99.90
13123;DHT22;6627;50.920;12.050;2023-06-10T12:31:56;27.80;99.90
13123;DHT22;6627;50.920;12.050;2023-06-10T12:34:32;27.80;99.90
13123;DHT22;6627;50.920;12.050;2023-06-10T12:37:02;27.70;99.90
13123;DHT22;6627;50.920;12.050;2023-06-10T12:39:32;27.60;99.90
13123;DHT22;6627;50.920;12.050;2023-06-10T12:44:30;27.70;99.90
13123;DHT22;6627;50.920;12.050;2023-06-10T12:46:58;27.70;99.90
13123;DHT22;6627;50.920;12.050;2023-06-10T12:49:26;27.60;99.90
13123;DHT22;6627;50.920;12.050;2023-06-10T12:51:53;27.80;99.90
13123;DHT22;6627;50.920;12.050;2023-06-10T12:54:21;27.70;99.90
13123;DHT22;6627;50.920;12.050;2023-06-10T12:56:50;27.80;99.90
13123;DHT22;6627;50.920;12.050;2023-06-10T12:59:18;27.70;99.90
13123;DHT22;6627;50.920;12.050;2023-06-10T13:01:50;27.80;99.90
13123;DHT22;6627;50.920;12.050;2023-06-10T13:04:18;27.90;99.90
13123;DHT22;6627;50.920;12.050;2023-06-10T13:06:46;28.10;99.90
13123;DHT22;6627;50.920;12.050;2023-06-10T13:09:13;28.00;99.90
13123;DHT22;6627;50.920;12.050;2023-06-10T13:11:41;28.20;99.90
13123;DHT22;6627;50.920;12.050;2023-06-10T13:14:10;27.90;99.90
13123;DHT22;6627;50.920;12.050;2023-06-10T13:16:38;28.10;99.90
13123;DHT22;6627;50.920;12.050;2023-06-10T13:21:33;27.90;99.90
13123;DHT22;6627;50.920;12.050;2023-06-10T13:24:01;27.90;99.90
13123;DHT22;6627;50.920;12.050;2023-06-10T13:26:29;27.90;99.90
13123;DHT22;6627;50.920;12.050;2023-06-10T13:28:56;27.90;99.90
13123;DHT22;6627;50.920;12.050;2023-06-10T13:31:24;28.00;99.90
13123;DHT22;6627;50.920;12.050;2023-06-10T13:33:52;28.00;99.90
13123;DHT22;6627;50.920;12.050;2023-06-10T13:36:19;28.10;99.90
13123;DHT22;6627;50.920;12.050;2023-06-10T13:38:46;28.30;99.90
13123;DHT22;6627;50.920;12.050;2023-06-10T13:41:14;28.40;99.90
13123;DHT22;6627;50.920;12.050;2023-06-10T13:43:42;28.10;99.90
13123;DHT22;6627;50.920;12.050;2023-06-10T13:46:09;28.20;99.90
13123;DHT22;6627;50.920;12.050;2023-06-10T13:48:38;28.10;99.90
13123;DHT22;6627;50.920;12.050;2023-06-10T13:51:05;27.90;99.90
13123;DHT22;6627;50.920;12.050;2023-06-10T13:53:32;28.10;99.90
13123;DHT22;6627;50.920;12.050;2023-06-10T13:56:00;28.00;99.30
13123;DHT22;6627;50.920;12.050;2023-06-10T13:58:27;27.90;99.90
13123;DHT22;6627;50.920;12.050;2023-06-10T14:00:54;28.00;99.90
13123;DHT22;6627;50.920;12.050;2023-06-10T14:03:23;28.30;99.90
13123;DHT22;6627;50.920;12.050;2023-06-10T14:05:51;28.10;99.50
13123;DHT22;6627;50.920;12.050;2023-06-10T14:08:19;28.10;99.90
13123;DHT22;6627;50.920;12.050;2023-06-10T14:10:47;28.10;99.30
13123;DHT22;6627;50.920;12.050;2023-06-10T14:13:16;28.10;99.30
13123;DHT22;6627;50.920;12.050;2023-06-10T14:15:44;27.70;99.00
13123;DHT22;6627;50.920;12.050;2023-06-10T14:18:11;27.40;99.60
13123;DHT22;6627;50.920;12.050;2023-06-10T14:20:38;27.20;99.90
13123;DHT22;6627;50.920;12.050;2023-06-10T14:23:07;27.10;99.90
13123;DHT22;6627;50.920;12.050;2023-06-10T14:25:34;27.00;99.90
13123;DHT22;6627;50.920;12.050;2023-06-10T14:28:01;27.20;99.90
13123;DHT22;6627;50.920;12.050;2023-06-10T14:30:28;27.40;99.90
13123;DHT22;6627;50.920;12.050;2023-06-10T14:32:56;27.40;99.90
13123;DHT22;6627;50.920;12.050;2023-06-10T14:35:23;27.60;99.90
13123;DHT22;6627;50.920;12.050;2023-06-10T14:37:50;27.70;99.90
13123;DHT22;6627;50.920;12.050;2023-06-10T14:40:19;27.80;99.90
13123;DHT22;6627;50.920;12.050;2023-06-10T14:42:47;27.60;99.90
13123;DHT22;6627;50.920;12.050;2023-06-10T14:45:14;27.50;99.90
13123;DHT22;6627;50.920;12.050;2023-06-10T14:47:42;27.40;99.90
13123;DHT22;6627;50.920;12.050;2023-06-10T14:50:09;27.40;99.90
13123;DHT22;6627;50.920;12.050;2023-06-10T14:52:36;27.30;99.90
13123;DHT22;6627;50.920;12.050;2023-06-10T14:55:05;27.50;99.90
13123;DHT22;6627;50.920;12.050;2023-06-10T14:57:34;27.30;99.90
13123;DHT22;6627;50.920;12.050;2023-06-10T15:00:01;27.20;99.90
13123;DHT22;6627;50.920;12.050;2023-06-10T15:02:29;27.30;99.90
13123;DHT22;6627;50.920;12.050;2023-06-10T15:04:57;27.20;99.90
13123;DHT22;6627;50.920;12.050;2023-06-10T15:07:24;27.20;99.90
13123;DHT22;6627;50.920;12.050;2023-06-10T15:09:52;27.20;99.90
13123;DHT22;6627;50.920;12.050;2023-06-10T15:12:19;27.30;99.90
13123;DHT22;6627;50.920;12.050;2023-06-10T15:14:48;27.20;99.90
13123;DHT22;6627;50.920;12.050;2023-06-10T15:17:15;27.40;99.90
13123;DHT22;6627;50.920;12.050;2023-06-10T15:19:42;27.40;99.90
13123;DHT22;6627;50.920;12.050;2023-06-10T15:22:10;27.70;99.90
13123;DHT22;6627;50.920;12.050;2023-06-10T15:24:37;27.80;99.90
13123;DHT22;6627;50.920;12.050;2023-06-10T15:27:05;27.90;97.80
13123;DHT22;6627;50.920;12.050;2023-06-10T15:29:32;27.90;97.30
13123;DHT22;6627;50.920;12.050;2023-06-10T15:32:01;28.10;97.30
13123;DHT22;6627;50.920;12.050;2023-06-10T15:34:28;28.10;94.80
13123;DHT22;6627;50.920;12.050;2023-06-10T15:36:55;28.10;95.10
13123;DHT22;6627;50.920;12.050;2023-06-10T15:39:23;28.10;96.70
13123;DHT22;6627;50.920;12.050;2023-06-10T15:41:53;27.90;97.80
13123;DHT22;6627;50.920;12.050;2023-06-10T15:44:20;27.80;98.10
13123;DHT22;6627;50.920;12.050;2023-06-10T15:46:47;27.90;97.90
13123;DHT22;6627;50.920;12.050;2023-06-10T15:49:17;27.90;97.40
13123;DHT22;6627;50.920;12.050;2023-06-10T15:51:44;27.90;95.70
13123;DHT22;6627;50.920;12.050;2023-06-10T15:54:11;27.90;96.80